CYHZ/YHZ METAR and TAF weather

Enter ICAO airport designator
Station Type Date Time Source
CYHZ METAR 2019/04/19 22:31 UTC NOAA

CYHZ 192231Z 20015G22KT 5/8SM R23/P6000FT/U R14/P6000FT/U BR VV001 10/10 A2988 RMK FG8 SLP124


Station Type Date Time Source
CYHZ Decoded METAR 2019/04/19 22:31 UTC NOAA

Halifax International Airport , Canada (CYHZ) 44-53N 063-30W
Apr 19, 2019 - 06:31 PM EDT / 2019.04.19 2231 UTC
Wind: from the SSW (200 degrees) at 17 MPH (15 KT) gusting to 25 MPH (22 KT):0
Visibility: 5/8 mile(s):0
Sky conditions: obscured
Weather: mist
Temperature: 50 F (10 C)
Dew Point: 50 F (10 C)
Relative Humidity: 100%
Pressure (altimeter): 29.88 in. Hg (1011 hPa)
ob: CYHZ 192231Z 20015G22KT 5/8SM R23/P6000FT/U R14/P6000FT/U BR VV001 10/10 A2988 RMK FG8 SLP124
cycle: 22

Station Type Date Time Source
CYHZ TAF 2019/04/19 21:42 UTC NOAA

TAF TAF CYHZ 192038Z 1921/2018 20015KT 6SM BR OVC002
TEMPO 1921/1923 1SM BR OVC001
FM192300 21015KT 1/4SM -DZ FG OVC001
FM201200 21015KT 1/2SM -RA -DZ FG VV002
RMK NXT FCST BY 200000Z

Example: see airport list